sensor_id;sensor_type;location;lat;lon;timestamp;P1;durP1;ratioP1;P2;durP2;ratioP2
15665;SDS011;20725;51.196;3.510;2023-12-07T00:00:22;169.80;;;23.13;;
15665;SDS011;20725;51.196;3.510;2023-12-07T00:02:49;133.93;;;21.33;;
15665;SDS011;20725;51.196;3.510;2023-12-07T00:05:16;149.17;;;22.07;;
15665;SDS011;20725;51.196;3.510;2023-12-07T00:07:43;79.77;;;14.47;;
15665;SDS011;20725;51.196;3.510;2023-12-07T00:10:10;136.60;;;20.97;;
15665;SDS011;20725;51.196;3.510;2023-12-07T00:12:39;115.80;;;18.77;;
15665;SDS011;20725;51.196;3.510;2023-12-07T00:15:06;46.43;;;10.30;;
15665;SDS011;20725;51.196;3.510;2023-12-07T00:17:33;93.20;;;18.37;;
15665;SDS011;20725;51.196;3.510;2023-12-07T00:20:01;59.03;;;14.93;;
15665;SDS011;20725;51.196;3.510;2023-12-07T00:22:29;64.77;;;11.77;;
15665;SDS011;20725;51.196;3.510;2023-12-07T00:24:56;134.53;;;17.37;;
15665;SDS011;20725;51.196;3.510;2023-12-07T00:27:24;127.17;;;17.27;;
15665;SDS011;20725;51.196;3.510;2023-12-07T00:29:52;156.37;;;18.80;;
15665;SDS011;20725;51.196;3.510;2023-12-07T00:32:19;186.70;;;20.73;;
15665;SDS011;20725;51.196;3.510;2023-12-07T00:34:47;179.20;;;17.80;;
15665;SDS011;20725;51.196;3.510;2023-12-07T00:37:14;188.37;;;20.47;;
15665;SDS011;20725;51.196;3.510;2023-12-07T00:39:41;204.03;;;22.73;;
15665;SDS011;20725;51.196;3.510;2023-12-07T00:42:08;182.10;;;19.67;;
15665;SDS011;20725;51.196;3.510;2023-12-07T00:44:38;184.93;;;20.67;;
15665;SDS011;20725;51.196;3.510;2023-12-07T00:47:07;214.33;;;22.80;;
15665;SDS011;20725;51.196;3.510;2023-12-07T00:49:37;224.40;;;21.07;;
15665;SDS011;20725;51.196;3.510;2023-12-07T00:52:05;216.27;;;21.43;;
15665;SDS011;20725;51.196;3.510;2023-12-07T00:54:32;200.13;;;22.00;;
15665;SDS011;20725;51.196;3.510;2023-12-07T00:57:00;150.43;;;21.40;;
15665;SDS011;20725;51.196;3.510;2023-12-07T00:59:27;293.17;;;27.70;;
15665;SDS011;20725;51.196;3.510;2023-12-07T01:01:58;250.90;;;23.47;;
15665;SDS011;20725;51.196;3.510;2023-12-07T01:04:27;378.80;;;33.93;;
15665;SDS011;20725;51.196;3.510;2023-12-07T01:06:55;236.73;;;27.27;;
15665;SDS011;20725;51.196;3.510;2023-12-07T01:09:22;201.20;;;18.53;;
15665;SDS011;20725;51.196;3.510;2023-12-07T01:11:49;261.43;;;25.63;;
15665;SDS011;20725;51.196;3.510;2023-12-07T01:14:17;250.40;;;25.73;;
15665;SDS011;20725;51.196;3.510;2023-12-07T01:16:44;164.73;;;19.20;;
15665;SDS011;20725;51.196;3.510;2023-12-07T01:19:11;226.37;;;24.07;;
15665;SDS011;20725;51.196;3.510;2023-12-07T01:21:41;219.10;;;22.97;;
15665;SDS011;20725;51.196;3.510;2023-12-07T01:24:08;183.73;;;22.17;;
15665;SDS011;20725;51.196;3.510;2023-12-07T01:26:35;174.70;;;20.67;;
15665;SDS011;20725;51.196;3.510;2023-12-07T01:29:02;320.03;;;28.63;;
15665;SDS011;20725;51.196;3.510;2023-12-07T01:31:29;187.00;;;21.60;;
15665;SDS011;20725;51.196;3.510;2023-12-07T01:33:57;242.93;;;27.30;;
15665;SDS011;20725;51.196;3.510;2023-12-07T01:36:24;356.40;;;28.50;;
15665;SDS011;20725;51.196;3.510;2023-12-07T01:38:52;370.20;;;30.20;;
15665;SDS011;20725;51.196;3.510;2023-12-07T01:41:19;251.67;;;24.63;;
15665;SDS011;20725;51.196;3.510;2023-12-07T01:43:47;268.10;;;24.73;;
15665;SDS011;20725;51.196;3.510;2023-12-07T01:46:15;301.37;;;27.10;;
15665;SDS011;20725;51.196;3.510;2023-12-07T01:48:43;226.37;;;22.50;;
15665;SDS011;20725;51.196;3.510;2023-12-07T01:51:13;302.73;;;27.30;;
15665;SDS011;20725;51.196;3.510;2023-12-07T01:53:41;456.10;;;38.50;;
15665;SDS011;20725;51.196;3.510;2023-12-07T01:56:10;172.97;;;15.30;;
15665;SDS011;20725;51.196;3.510;2023-12-07T01:58:38;135.63;;;18.83;;
15665;SDS011;20725;51.196;3.510;2023-12-07T02:01:05;79.63;;;12.17;;
15665;SDS011;20725;51.196;3.510;2023-12-07T02:03:32;185.17;;;24.47;;
15665;SDS011;20725;51.196;3.510;2023-12-07T02:05:59;144.87;;;18.73;;
15665;SDS011;20725;51.196;3.510;2023-12-07T02:08:28;81.43;;;16.10;;
15665;SDS011;20725;51.196;3.510;2023-12-07T02:10:55;178.80;;;22.03;;
15665;SDS011;20725;51.196;3.510;2023-12-07T02:13:24;133.77;;;20.87;;
15665;SDS011;20725;51.196;3.510;2023-12-07T02:15:51;215.97;;;25.47;;
15665;SDS011;20725;51.196;3.510;2023-12-07T02:18:21;206.63;;;25.17;;
15665;SDS011;20725;51.196;3.510;2023-12-07T02:20:53;101.17;;;18.53;;
15665;SDS011;20725;51.196;3.510;2023-12-07T02:23:22;233.87;;;23.37;;
15665;SDS011;20725;51.196;3.510;2023-12-07T02:26:00;134.37;;;19.97;;
15665;SDS011;20725;51.196;3.510;2023-12-07T02:28:30;203.57;;;22.80;;
15665;SDS011;20725;51.196;3.510;2023-12-07T02:30:58;135.97;;;16.77;;
15665;SDS011;20725;51.196;3.510;2023-12-07T02:33:25;316.00;;;30.67;;
15665;SDS011;20725;51.196;3.510;2023-12-07T02:35:52;108.97;;;16.33;;
15665;SDS011;20725;51.196;3.510;2023-12-07T02:38:20;178.77;;;24.50;;
15665;SDS011;20725;51.196;3.510;2023-12-07T02:40:49;245.43;;;30.27;;
15665;SDS011;20725;51.196;3.510;2023-12-07T02:43:17;259.67;;;30.87;;
15665;SDS011;20725;51.196;3.510;2023-12-07T02:45:46;198.43;;;25.90;;
15665;SDS011;20725;51.196;3.510;2023-12-07T02:48:14;252.87;;;31.33;;
15665;SDS011;20725;51.196;3.510;2023-12-07T02:50:42;246.93;;;29.40;;
15665;SDS011;20725;51.196;3.510;2023-12-07T02:53:09;340.10;;;36.70;;
15665;SDS011;20725;51.196;3.510;2023-12-07T02:55:37;307.37;;;37.07;;
15665;SDS011;20725;51.196;3.510;2023-12-07T02:58:04;243.60;;;30.93;;
15665;SDS011;20725;51.196;3.510;2023-12-07T03:00:31;174.30;;;23.63;;
15665;SDS011;20725;51.196;3.510;2023-12-07T03:03:00;166.40;;;25.90;;
15665;SDS011;20725;51.196;3.510;2023-12-07T03:05:28;216.13;;;30.83;;
15665;SDS011;20725;51.196;3.510;2023-12-07T03:07:55;194.77;;;28.57;;
15665;SDS011;20725;51.196;3.510;2023-12-07T03:10:22;244.00;;;30.53;;
15665;SDS011;20725;51.196;3.510;2023-12-07T03:12:49;125.80;;;25.07;;
15665;SDS011;20725;51.196;3.510;2023-12-07T03:15:17;142.30;;;28.00;;
15665;SDS011;20725;51.196;3.510;2023-12-07T03:17:44;102.60;;;22.53;;
15665;SDS011;20725;51.196;3.510;2023-12-07T03:20:12;155.37;;;27.40;;
15665;SDS011;20725;51.196;3.510;2023-12-07T03:22:40;183.17;;;31.47;;
15665;SDS011;20725;51.196;3.510;2023-12-07T03:25:07;176.30;;;29.70;;
15665;SDS011;20725;51.196;3.510;2023-12-07T03:27:35;172.60;;;32.20;;
15665;SDS011;20725;51.196;3.510;2023-12-07T03:30:02;45.63;;;13.70;;
15665;SDS011;20725;51.196;3.510;2023-12-07T03:32:30;129.63;;;26.43;;
15665;SDS011;20725;51.196;3.510;2023-12-07T03:34:57;109.87;;;23.07;;
15665;SDS011;20725;51.196;3.510;2023-12-07T03:37:26;124.57;;;28.40;;
15665;SDS011;20725;51.196;3.510;2023-12-07T03:39:53;121.30;;;28.63;;
15665;SDS011;20725;51.196;3.510;2023-12-07T03:42:20;102.40;;;23.30;;
15665;SDS011;20725;51.196;3.510;2023-12-07T03:44:47;98.73;;;24.97;;
15665;SDS011;20725;51.196;3.510;2023-12-07T03:47:14;115.33;;;26.13;;
15665;SDS011;20725;51.196;3.510;2023-12-07T03:49:43;92.73;;;22.47;;
15665;SDS011;20725;51.196;3.510;2023-12-07T03:52:11;108.50;;;26.60;;
15665;SDS011;20725;51.196;3.510;2023-12-07T03:54:40;116.87;;;25.80;;
15665;SDS011;20725;51.196;3.510;2023-12-07T03:57:07;87.23;;;22.20;;
15665;SDS011;20725;51.196;3.510;2023-12-07T03:59:35;85.27;;;23.67;;
15665;SDS011;20725;51.196;3.510;2023-12-07T04:02:02;54.37;;;19.57;;
15665;SDS011;20725;51.196;3.510;2023-12-07T04:04:30;97.50;;;23.83;;
15665;SDS011;20725;51.196;3.510;2023-12-07T04:06:57;100.60;;;23.93;;
15665;SDS011;20725;51.196;3.510;2023-12-07T04:09:25;66.53;;;20.07;;
15665;SDS011;20725;51.196;3.510;2023-12-07T04:11:53;77.93;;;22.13;;
15665;SDS011;20725;51.196;3.510;2023-12-07T04:14:20;62.50;;;19.57;;
15665;SDS011;20725;51.196;3.510;2023-12-07T04:16:47;89.80;;;23.90;;
15665;SDS011;20725;51.196;3.510;2023-12-07T04:19:15;75.50;;;21.13;;
15665;SDS011;20725;51.196;3.510;2023-12-07T04:21:42;78.00;;;21.40;;
15665;SDS011;20725;51.196;3.510;2023-12-07T04:24:09;84.50;;;19.67;;
15665;SDS011;20725;51.196;3.510;2023-12-07T04:26:37;104.97;;;24.67;;
15665;SDS011;20725;51.196;3.510;2023-12-07T04:29:05;81.93;;;23.13;;
15665;SDS011;20725;51.196;3.510;2023-12-07T04:31:32;74.93;;;19.87;;
15665;SDS011;20725;51.196;3.510;2023-12-07T04:34:00;86.73;;;22.40;;
15665;SDS011;20725;51.196;3.510;2023-12-07T04:36:28;90.17;;;23.00;;
15665;SDS011;20725;51.196;3.510;2023-12-07T04:38:55;81.30;;;24.30;;
15665;SDS011;20725;51.196;3.510;2023-12-07T04:41:22;67.40;;;20.60;;
15665;SDS011;20725;51.196;3.510;2023-12-07T04:43:49;65.83;;;18.80;;
15665;SDS011;20725;51.196;3.510;2023-12-07T04:46:18;54.43;;;17.57;;
15665;SDS011;20725;51.196;3.510;2023-12-07T04:48:45;64.00;;;20.67;;
15665;SDS011;20725;51.196;3.510;2023-12-07T04:51:12;65.37;;;19.90;;
15665;SDS011;20725;51.196;3.510;2023-12-07T04:53:39;84.97;;;24.00;;
15665;SDS011;20725;51.196;3.510;2023-12-07T04:56:07;34.43;;;13.43;;
15665;SDS011;20725;51.196;3.510;2023-12-07T04:58:34;84.97;;;27.23;;
15665;SDS011;20725;51.196;3.510;2023-12-07T05:01:01;80.20;;;22.60;;
15665;SDS011;20725;51.196;3.510;2023-12-07T05:03:31;71.73;;;22.47;;
15665;SDS011;20725;51.196;3.510;2023-12-07T05:05:58;37.43;;;15.07;;
15665;SDS011;20725;51.196;3.510;2023-12-07T05:08:26;92.27;;;26.47;;
15665;SDS011;20725;51.196;3.510;2023-12-07T05:10:53;64.03;;;21.50;;
15665;SDS011;20725;51.196;3.510;2023-12-07T05:13:20;73.83;;;25.60;;
15665;SDS011;20725;51.196;3.510;2023-12-07T05:15:47;67.80;;;24.30;;
15665;SDS011;20725;51.196;3.510;2023-12-07T05:18:14;61.60;;;20.67;;
15665;SDS011;20725;51.196;3.510;2023-12-07T05:20:43;23.93;;;12.03;;
15665;SDS011;20725;51.196;3.510;2023-12-07T05:23:10;23.17;;;12.10;;
15665;SDS011;20725;51.196;3.510;2023-12-07T05:25:37;51.10;;;19.80;;
15665;SDS011;20725;51.196;3.510;2023-12-07T05:28:05;60.63;;;22.20;;
15665;SDS011;20725;51.196;3.510;2023-12-07T05:30:32;51.00;;;19.33;;
15665;SDS011;20725;51.196;3.510;2023-12-07T05:32:59;50.70;;;20.80;;
15665;SDS011;20725;51.196;3.510;2023-12-07T05:35:26;57.97;;;22.07;;
15665;SDS011;20725;51.196;3.510;2023-12-07T05:37:55;60.60;;;23.00;;
15665;SDS011;20725;51.196;3.510;2023-12-07T05:40:23;46.63;;;18.83;;
15665;SDS011;20725;51.196;3.510;2023-12-07T05:42:51;58.03;;;23.57;;
15665;SDS011;20725;51.196;3.510;2023-12-07T05:45:18;57.43;;;22.73;;
15665;SDS011;20725;51.196;3.510;2023-12-07T05:47:45;52.70;;;21.67;;
15665;SDS011;20725;51.196;3.510;2023-12-07T05:50:12;37.33;;;17.27;;
15665;SDS011;20725;51.196;3.510;2023-12-07T05:52:40;43.63;;;18.97;;
15665;SDS011;20725;51.196;3.510;2023-12-07T05:55:09;52.90;;;22.27;;
15665;SDS011;20725;51.196;3.510;2023-12-07T05:57:36;55.17;;;23.43;;
15665;SDS011;20725;51.196;3.510;2023-12-07T06:00:03;52.33;;;21.13;;
15665;SDS011;20725;51.196;3.510;2023-12-07T06:02:34;45.47;;;17.43;;
15665;SDS011;20725;51.196;3.510;2023-12-07T06:05:00;37.53;;;22.37;;
15665;SDS011;20725;51.196;3.510;2023-12-07T06:07:29;49.97;;;23.80;;
15665;SDS011;20725;51.196;3.510;2023-12-07T06:09:56;48.20;;;21.80;;
15665;SDS011;20725;51.196;3.510;2023-12-07T06:12:24;39.33;;;20.10;;
15665;SDS011;20725;51.196;3.510;2023-12-07T06:14:52;47.53;;;23.87;;
15665;SDS011;20725;51.196;3.510;2023-12-07T06:17:20;40.83;;;21.30;;
15665;SDS011;20725;51.196;3.510;2023-12-07T06:19:47;42.83;;;21.67;;
15665;SDS011;20725;51.196;3.510;2023-12-07T06:22:14;35.07;;;16.63;;
15665;SDS011;20725;51.196;3.510;2023-12-07T06:24:42;37.10;;;22.60;;
15665;SDS011;20725;51.196;3.510;2023-12-07T06:27:09;26.53;;;16.20;;
15665;SDS011;20725;51.196;3.510;2023-12-07T06:29:38;31.43;;;16.63;;
15665;SDS011;20725;51.196;3.510;2023-12-07T06:32:06;25.33;;;16.47;;
15665;SDS011;20725;51.196;3.510;2023-12-07T06:34:33;28.07;;;18.00;;
15665;SDS011;20725;51.196;3.510;2023-12-07T06:37:00;16.43;;;10.60;;
15665;SDS011;20725;51.196;3.510;2023-12-07T06:39:27;15.53;;;12.30;;
15665;SDS011;20725;51.196;3.510;2023-12-07T06:41:54;31.70;;;18.60;;
15665;SDS011;20725;51.196;3.510;2023-12-07T06:44:22;25.27;;;15.33;;
15665;SDS011;20725;51.196;3.510;2023-12-07T06:46:50;23.77;;;14.63;;
15665;SDS011;20725;51.196;3.510;2023-12-07T06:49:18;22.43;;;13.63;;
15665;SDS011;20725;51.196;3.510;2023-12-07T06:51:45;31.07;;;20.03;;
15665;SDS011;20725;51.196;3.510;2023-12-07T06:54:13;32.40;;;19.30;;
15665;SDS011;20725;51.196;3.510;2023-12-07T06:56:40;32.30;;;17.80;;
15665;SDS011;20725;51.196;3.510;2023-12-07T06:59:07;35.53;;;18.20;;
15665;SDS011;20725;51.196;3.510;2023-12-07T07:01:35;31.00;;;19.17;;
15665;SDS011;20725;51.196;3.510;2023-12-07T07:04:04;25.67;;;16.43;;
15665;SDS011;20725;51.196;3.510;2023-12-07T07:06:31;47.57;;;25.53;;
15665;SDS011;20725;51.196;3.510;2023-12-07T07:08:58;42.33;;;23.93;;
15665;SDS011;20725;51.196;3.510;2023-12-07T07:11:26;45.87;;;26.43;;
15665;SDS011;20725;51.196;3.510;2023-12-07T07:13:54;53.70;;;25.87;;
15665;SDS011;20725;51.196;3.510;2023-12-07T07:16:21;53.10;;;26.80;;
15665;SDS011;20725;51.196;3.510;2023-12-07T07:18:48;24.63;;;14.73;;
15665;SDS011;20725;51.196;3.510;2023-12-07T07:21:17;48.70;;;24.20;;
15665;SDS011;20725;51.196;3.510;2023-12-07T07:23:45;43.10;;;22.67;;
15665;SDS011;20725;51.196;3.510;2023-12-07T07:26:13;41.07;;;23.67;;
15665;SDS011;20725;51.196;3.510;2023-12-07T07:28:42;26.83;;;17.97;;
15665;SDS011;20725;51.196;3.510;2023-12-07T07:31:09;30.30;;;15.33;;
15665;SDS011;20725;51.196;3.510;2023-12-07T07:33:36;28.47;;;16.43;;
15665;SDS011;20725;51.196;3.510;2023-12-07T07:36:04;25.00;;;15.13;;
15665;SDS011;20725;51.196;3.510;2023-12-07T07:38:32;33.53;;;16.93;;
15665;SDS011;20725;51.196;3.510;2023-12-07T07:41:00;31.27;;;19.00;;
15665;SDS011;20725;51.196;3.510;2023-12-07T07:43:28;30.60;;;19.23;;
15665;SDS011;20725;51.196;3.510;2023-12-07T07:45:55;30.67;;;18.63;;
15665;SDS011;20725;51.196;3.510;2023-12-07T07:48:23;33.17;;;19.83;;
15665;SDS011;20725;51.196;3.510;2023-12-07T07:50:51;35.47;;;17.90;;
15665;SDS011;20725;51.196;3.510;2023-12-07T07:53:18;24.83;;;15.33;;
15665;SDS011;20725;51.196;3.510;2023-12-07T07:55:47;25.47;;;15.70;;
15665;SDS011;20725;51.196;3.510;2023-12-07T07:58:15;29.47;;;18.80;;
15665;SDS011;20725;51.196;3.510;2023-12-07T08:00:42;31.53;;;18.87;;
15665;SDS011;20725;51.196;3.510;2023-12-07T08:03:12;32.50;;;14.73;;
15665;SDS011;20725;51.196;3.510;2023-12-07T08:05:40;34.90;;;19.90;;
15665;SDS011;20725;51.196;3.510;2023-12-07T08:08:07;36.33;;;19.80;;
15665;SDS011;20725;51.196;3.510;2023-12-07T08:10:35;32.33;;;16.40;;
15665;SDS011;20725;51.196;3.510;2023-12-07T08:13:05;37.63;;;22.23;;
15665;SDS011;20725;51.196;3.510;2023-12-07T08:15:33;41.30;;;19.20;;
15665;SDS011;20725;51.196;3.510;2023-12-07T08:18:01;32.50;;;17.10;;
15665;SDS011;20725;51.196;3.510;2023-12-07T08:20:31;29.37;;;19.03;;
15665;SDS011;20725;51.196;3.510;2023-12-07T08:22:58;35.50;;;21.07;;
15665;SDS011;20725;51.196;3.510;2023-12-07T08:25:25;31.23;;;19.53;;
15665;SDS011;20725;51.196;3.510;2023-12-07T08:27:53;29.13;;;19.43;;
15665;SDS011;20725;51.196;3.510;2023-12-07T08:30:22;29.13;;;18.67;;
15665;SDS011;20725;51.196;3.510;2023-12-07T08:32:49;32.07;;;18.77;;
15665;SDS011;20725;51.196;3.510;2023-12-07T08:35:16;27.47;;;19.47;;
15665;SDS011;20725;51.196;3.510;2023-12-07T08:37:44;32.77;;;19.20;;
15665;SDS011;20725;51.196;3.510;2023-12-07T08:40:11;28.90;;;19.90;;
15665;SDS011;20725;51.196;3.510;2023-12-07T08:42:40;30.77;;;18.20;;
15665;SDS011;20725;51.196;3.510;2023-12-07T08:45:11;29.63;;;18.67;;
15665;SDS011;20725;51.196;3.510;2023-12-07T08:47:41;28.70;;;14.43;;
15665;SDS011;20725;51.196;3.510;2023-12-07T08:50:09;24.93;;;17.20;;
15665;SDS011;20725;51.196;3.510;2023-12-07T08:52:36;26.37;;;18.13;;
15665;SDS011;20725;51.196;3.510;2023-12-07T08:55:04;31.37;;;17.93;;
15665;SDS011;20725;51.196;3.510;2023-12-07T08:57:31;23.87;;;17.63;;
15665;SDS011;20725;51.196;3.510;2023-12-07T08:59:58;25.43;;;17.17;;
15665;SDS011;20725;51.196;3.510;2023-12-07T09:02:26;24.33;;;17.40;;
15665;SDS011;20725;51.196;3.510;2023-12-07T09:04:55;22.30;;;12.47;;
15665;SDS011;20725;51.196;3.510;2023-12-07T09:07:23;24.90;;;18.47;;
15665;SDS011;20725;51.196;3.510;2023-12-07T09:09:50;28.90;;;17.80;;
15665;SDS011;20725;51.196;3.510;2023-12-07T09:12:17;25.37;;;18.03;;
15665;SDS011;20725;51.196;3.510;2023-12-07T09:14:45;26.97;;;17.80;;
15665;SDS011;20725;51.196;3.510;2023-12-07T09:17:12;25.73;;;17.13;;
15665;SDS011;20725;51.196;3.510;2023-12-07T09:19:40;26.77;;;17.60;;
15665;SDS011;20725;51.196;3.510;2023-12-07T09:22:10;25.10;;;17.50;;
15665;SDS011;20725;51.196;3.510;2023-12-07T09:24:39;24.47;;;16.90;;
15665;SDS011;20725;51.196;3.510;2023-12-07T09:27:07;27.33;;;14.23;;
15665;SDS011;20725;51.196;3.510;2023-12-07T09:29:35;25.23;;;17.57;;
15665;SDS011;20725;51.196;3.510;2023-12-07T09:32:04;24.33;;;17.00;;
15665;SDS011;20725;51.196;3.510;2023-12-07T09:34:31;24.97;;;16.60;;
15665;SDS011;20725;51.196;3.510;2023-12-07T09:37:05;25.23;;;15.80;;
15665;SDS011;20725;51.196;3.510;2023-12-07T09:39:34;23.90;;;14.37;;
15665;SDS011;20725;51.196;3.510;2023-12-07T09:42:02;19.57;;;13.93;;
15665;SDS011;20725;51.196;3.510;2023-12-07T09:44:29;21.37;;;15.00;;
15665;SDS011;20725;51.196;3.510;2023-12-07T09:46:57;23.87;;;15.50;;
15665;SDS011;20725;51.196;3.510;2023-12-07T09:49:24;21.77;;;14.90;;
15665;SDS011;20725;51.196;3.510;2023-12-07T09:51:52;23.87;;;15.10;;
15665;SDS011;20725;51.196;3.510;2023-12-07T09:54:19;13.57;;;9.23;;
15665;SDS011;20725;51.196;3.510;2023-12-07T09:56:49;20.20;;;14.17;;
15665;SDS011;20725;51.196;3.510;2023-12-07T09:59:18;17.83;;;11.13;;
15665;SDS011;20725;51.196;3.510;2023-12-07T10:01:46;13.33;;;9.90;;
15665;SDS011;20725;51.196;3.510;2023-12-07T10:04:18;17.97;;;13.20;;
15665;SDS011;20725;51.196;3.510;2023-12-07T10:06:47;18.93;;;14.07;;
15665;SDS011;20725;51.196;3.510;2023-12-07T10:09:16;17.73;;;12.97;;
15665;SDS011;20725;51.196;3.510;2023-12-07T10:11:44;20.53;;;13.03;;
15665;SDS011;20725;51.196;3.510;2023-12-07T10:14:13;16.90;;;12.73;;
15665;SDS011;20725;51.196;3.510;2023-12-07T10:16:46;15.20;;;12.47;;
15665;SDS011;20725;51.196;3.510;2023-12-07T10:19:20;14.83;;;11.37;;
15665;SDS011;20725;51.196;3.510;2023-12-07T10:21:48;17.57;;;11.40;;
15665;SDS011;20725;51.196;3.510;2023-12-07T10:24:16;16.53;;;11.33;;
15665;SDS011;20725;51.196;3.510;2023-12-07T10:26:44;13.67;;;10.43;;
15665;SDS011;20725;51.196;3.510;2023-12-07T10:29:13;13.40;;;10.03;;
15665;SDS011;20725;51.196;3.510;2023-12-07T10:31:41;14.13;;;11.00;;
15665;SDS011;20725;51.196;3.510;2023-12-07T10:34:09;11.67;;;10.47;;
15665;SDS011;20725;51.196;3.510;2023-12-07T10:36:36;13.33;;;10.40;;
15665;SDS011;20725;51.196;3.510;2023-12-07T10:39:04;13.00;;;10.10;;
15665;SDS011;20725;51.196;3.510;2023-12-07T10:41:33;15.83;;;9.60;;
15665;SDS011;20725;51.196;3.510;2023-12-07T10:44:04;13.97;;;10.40;;
15665;SDS011;20725;51.196;3.510;2023-12-07T10:46:35;12.70;;;11.37;;
15665;SDS011;20725;51.196;3.510;2023-12-07T10:49:04;11.97;;;9.77;;
15665;SDS011;20725;51.196;3.510;2023-12-07T10:51:34;15.17;;;10.63;;
15665;SDS011;20725;51.196;3.510;2023-12-07T10:54:02;16.17;;;9.33;;
15665;SDS011;20725;51.196;3.510;2023-12-07T10:56:40;10.53;;;9.43;;
15665;SDS011;20725;51.196;3.510;2023-12-07T10:59:09;13.60;;;10.13;;
15665;SDS011;20725;51.196;3.510;2023-12-07T11:01:38;13.20;;;9.80;;
15665;SDS011;20725;51.196;3.510;2023-12-07T11:04:08;12.27;;;7.70;;
15665;SDS011;20725;51.196;3.510;2023-12-07T11:06:38;11.23;;;10.00;;
15665;SDS011;20725;51.196;3.510;2023-12-07T11:09:08;10.97;;;8.53;;
15665;SDS011;20725;51.196;3.510;2023-12-07T11:11:39;12.07;;;9.60;;
15665;SDS011;20725;51.196;3.510;2023-12-07T11:14:08;10.80;;;8.40;;
15665;SDS011;20725;51.196;3.510;2023-12-07T11:16:39;14.80;;;11.20;;
15665;SDS011;20725;51.196;3.510;2023-12-07T11:21:49;12.07;;;9.93;;
15665;SDS011;20725;51.196;3.510;2023-12-07T11:24:17;13.43;;;10.37;;
15665;SDS011;20725;51.196;3.510;2023-12-07T11:26:44;12.10;;;10.00;;
15665;SDS011;20725;51.196;3.510;2023-12-07T11:29:13;10.60;;;8.30;;
15665;SDS011;20725;51.196;3.510;2023-12-07T11:31:42;9.10;;;7.43;;
15665;SDS011;20725;51.196;3.510;2023-12-07T11:34:10;11.83;;;10.63;;
15665;SDS011;20725;51.196;3.510;2023-12-07T11:36:39;14.63;;;10.90;;
15665;SDS011;20725;51.196;3.510;2023-12-07T11:39:15;12.53;;;7.00;;
15665;SDS011;20725;51.196;3.510;2023-12-07T11:41:46;12.67;;;11.27;;
15665;SDS011;20725;51.196;3.510;2023-12-07T11:44:17;12.43;;;11.13;;
15665;SDS011;20725;51.196;3.510;2023-12-07T11:46:47;11.73;;;10.13;;
15665;SDS011;20725;51.196;3.510;2023-12-07T11:49:15;11.37;;;8.87;;
15665;SDS011;20725;51.196;3.510;2023-12-07T11:51:43;12.03;;;9.10;;
15665;SDS011;20725;51.196;3.510;2023-12-07T11:54:10;11.27;;;9.07;;
15665;SDS011;20725;51.196;3.510;2023-12-07T11:56:37;13.13;;;10.83;;
15665;SDS011;20725;51.196;3.510;2023-12-07T11:59:05;13.63;;;9.00;;
15665;SDS011;20725;51.196;3.510;2023-12-07T12:01:33;17.23;;;10.10;;
15665;SDS011;20725;51.196;3.510;2023-12-07T12:04:05;13.87;;;10.23;;
15665;SDS011;20725;51.196;3.510;2023-12-07T12:06:34;10.13;;;8.43;;
15665;SDS011;20725;51.196;3.510;2023-12-07T12:09:02;12.93;;;10.70;;
15665;SDS011;20725;51.196;3.510;2023-12-07T12:11:30;9.33;;;7.67;;
15665;SDS011;20725;51.196;3.510;2023-12-07T12:14:00;11.10;;;8.27;;
15665;SDS011;20725;51.196;3.510;2023-12-07T12:16:27;12.10;;;9.90;;
15665;SDS011;20725;51.196;3.510;2023-12-07T12:18:55;11.73;;;8.93;;
15665;SDS011;20725;51.196;3.510;2023-12-07T12:21:25;7.97;;;7.17;;
15665;SDS011;20725;51.196;3.510;2023-12-07T12:23:53;9.73;;;8.80;;
15665;SDS011;20725;51.196;3.510;2023-12-07T12:26:22;11.30;;;10.10;;
15665;SDS011;20725;51.196;3.510;2023-12-07T12:28:49;15.90;;;9.80;;
15665;SDS011;20725;51.196;3.510;2023-12-07T12:31:17;12.33;;;10.33;;
15665;SDS011;20725;51.196;3.510;2023-12-07T12:33:45;7.23;;;6.53;;
15665;SDS011;20725;51.196;3.510;2023-12-07T12:36:15;11.80;;;6.37;;
15665;SDS011;20725;51.196;3.510;2023-12-07T12:38:47;12.93;;;9.43;;
15665;SDS011;20725;51.196;3.510;2023-12-07T12:41:17;10.70;;;9.10;;
15665;SDS011;20725;51.196;3.510;2023-12-07T12:43:46;11.43;;;8.27;;
15665;SDS011;20725;51.196;3.510;2023-12-07T12:46:14;13.83;;;9.90;;
15665;SDS011;20725;51.196;3.510;2023-12-07T12:48:52;12.07;;;8.73;;
15665;SDS011;20725;51.196;3.510;2023-12-07T12:51:22;11.13;;;7.63;;
15665;SDS011;20725;51.196;3.510;2023-12-07T12:53:52;10.30;;;7.40;;
15665;SDS011;20725;51.196;3.510;2023-12-07T12:56:20;9.50;;;8.30;;
15665;SDS011;20725;51.196;3.510;2023-12-07T12:58:48;7.27;;;6.57;;
15665;SDS011;20725;51.196;3.510;2023-12-07T13:01:16;13.07;;;8.63;;
15665;SDS011;20725;51.196;3.510;2023-12-07T13:03:46;15.27;;;8.33;;
15665;SDS011;20725;51.196;3.510;2023-12-07T13:06:13;10.17;;;8.47;;
15665;SDS011;20725;51.196;3.510;2023-12-07T13:08:41;9.37;;;8.47;;
15665;SDS011;20725;51.196;3.510;2023-12-07T13:11:15;8.63;;;7.83;;
15665;SDS011;20725;51.196;3.510;2023-12-07T13:13:44;8.00;;;7.20;;
15665;SDS011;20725;51.196;3.510;2023-12-07T13:16:12;11.17;;;7.80;;
15665;SDS011;20725;51.196;3.510;2023-12-07T13:18:40;10.50;;;7.50;;
15665;SDS011;20725;51.196;3.510;2023-12-07T13:21:08;6.20;;;5.60;;
15665;SDS011;20725;51.196;3.510;2023-12-07T13:23:36;8.60;;;6.67;;
15665;SDS011;20725;51.196;3.510;2023-12-07T13:26:04;15.33;;;8.00;;
15665;SDS011;20725;51.196;3.510;2023-12-07T13:28:34;8.80;;;7.40;;
15665;SDS011;20725;51.196;3.510;2023-12-07T13:31:02;7.43;;;6.73;;
15665;SDS011;20725;51.196;3.510;2023-12-07T13:33:30;9.70;;;7.63;;
15665;SDS011;20725;51.196;3.510;2023-12-07T13:35:57;9.57;;;7.23;;
15665;SDS011;20725;51.196;3.510;2023-12-07T13:38:26;8.13;;;7.30;;
15665;SDS011;20725;51.196;3.510;2023-12-07T13:40:55;6.97;;;6.37;;
15665;SDS011;20725;51.196;3.510;2023-12-07T13:43:30;7.83;;;7.03;;
15665;SDS011;20725;51.196;3.510;2023-12-07T13:46:00;7.57;;;6.53;;
15665;SDS011;20725;51.196;3.510;2023-12-07T13:48:28;7.73;;;6.97;;
15665;SDS011;20725;51.196;3.510;2023-12-07T13:50:56;9.67;;;6.73;;
15665;SDS011;20725;51.196;3.510;2023-12-07T13:53:23;8.47;;;7.50;;
15665;SDS011;20725;51.196;3.510;2023-12-07T13:55:52;8.73;;;7.87;;
15665;SDS011;20725;51.196;3.510;2023-12-07T13:58:20;11.57;;;7.70;;
15665;SDS011;20725;51.196;3.510;2023-12-07T14:00:48;8.33;;;7.37;;
15665;SDS011;20725;51.196;3.510;2023-12-07T14:03:18;5.73;;;5.00;;
15665;SDS011;20725;51.196;3.510;2023-12-07T14:05:46;9.97;;;7.20;;
15665;SDS011;20725;51.196;3.510;2023-12-07T14:08:13;9.70;;;6.60;;
15665;SDS011;20725;51.196;3.510;2023-12-07T14:10:43;7.03;;;5.63;;
15665;SDS011;20725;51.196;3.510;2023-12-07T14:13:10;6.40;;;5.77;;
15665;SDS011;20725;51.196;3.510;2023-12-07T14:15:38;8.73;;;7.27;;
15665;SDS011;20725;51.196;3.510;2023-12-07T14:18:06;9.57;;;7.33;;
15665;SDS011;20725;51.196;3.510;2023-12-07T14:20:35;9.33;;;7.27;;
15665;SDS011;20725;51.196;3.510;2023-12-07T14:23:05;9.33;;;7.53;;
15665;SDS011;20725;51.196;3.510;2023-12-07T14:25:32;10.53;;;7.07;;
15665;SDS011;20725;51.196;3.510;2023-12-07T14:28:01;11.20;;;7.20;;
15665;SDS011;20725;51.196;3.510;2023-12-07T14:30:29;10.53;;;7.93;;